Time;durP1;ratioP1;P1;durP2;ratioP2;P2;SDS_P1;SDS_P2;PMS_P1;PMS_P2;Temp;Humidity;BMP_temperature;BMP_pressure;BME280_temperature;BME280_humidity;BME280_pressure;Samples;Min_cycle;Max_cycle;Signal;HPM_P1;HPM_P2
2022/01/01 13:28:33;;;;;;;3.83;2.87;;;;;;;5.04;100.00;98874.53;1775773;79;23232;-56
2022/01/01 13:31:03;;;;;;;2.40;1.90;;;;;;;5.06;100.00;98873.18;1736336;81;21490;-56
2022/01/01 13:33:32;;;;;;;2.95;2.35;;;;;;;5.20;100.00;98876.20;1739137;80;22052;-56
2022/01/01 13:36:00;;;;;;;2.83;2.02;;;;;;;5.36;100.00;98878.28;1736801;80;21534;-56
2022/01/01 13:38:30;;;;;;;3.50;2.70;;;;;;;5.50;100.00;98885.63;1734745;81;21482;-62
2022/01/01 13:41:03;;;;;;;3.98;2.60;;;;;;;5.57;100.00;98881.45;1730065;80;21613;-55
2022/01/01 13:43:36;;;;;;;3.10;2.60;;;;;;;5.67;100.00;98882.01;1741633;80;21546;-55
2022/01/01 13:46:13;;;;;;;3.80;2.50;;;;;;;5.71;100.00;98875.77;1741704;80;21874;-56
2022/01/01 13:48:46;;;;;;;5.12;2.77;;;;;;;5.80;100.00;98879.79;1740245;80;21061;-57
2022/01/01 13:51:15;;;;;;;3.98;2.33;;;;;;;5.81;100.00;98877.13;1730133;80;21447;-57
2022/01/01 13:53:42;;;;;;;2.83;2.15;;;;;;;5.85;100.00;98878.72;1729916;81;21485;-54
2022/01/01 13:56:15;;;;;;;1.72;1.62;;;;;;;5.91;100.00;98876.81;1740072;80;21439;-56
2022/01/01 13:58:45;;;;;;;2.27;1.80;;;;;;;5.93;100.00;98878.45;1730537;80;21842;-55
2022/01/01 14:01:18;;;;;;;1.42;1.32;;;;;;;5.97;100.00;98880.09;1729978;81;21519;-55
2022/01/01 14:03:46;;;;;;;0.88;0.80;;;;;;;6.00;100.00;98876.05;1733283;81;21608;-54
2022/01/01 14:06:12;;;;;;;1.77;1.17;;;;;;;5.98;100.00;98870.50;1727846;81;21503;-54
2022/01/01 14:09:01;;;;;;;1.85;1.20;;;;;;;6.01;100.00;98869.09;1731606;81;21096;-54
2022/01/01 14:11:35;;;;;;;1.27;1.00;;;;;;;6.04;100.00;98871.58;1737893;80;22061;-55
2022/01/01 14:14:11;;;;;;;2.62;1.55;;;;;;;6.04;100.00;98873.72;1737549;80;20987;-55
2022/01/01 14:16:48;;;;;;;2.55;1.65;;;;;;;6.04;100.00;98871.11;1737813;80;21562;-56
2022/01/01 14:19:19;;;;;;;1.77;1.25;;;;;;;5.99;100.00;98881.32;1729870;81;20978;-52
2022/01/01 14:21:51;;;;;;;2.70;1.60;;;;;;;6.00;100.00;98880.42;1743479;80;21596;-54
2022/01/01 14:24:22;;;;;;;2.33;1.67;;;;;;;6.01;99.48;98884.29;1730889;80;21479;-54
2022/01/01 14:26:54;;;;;;;2.12;1.92;;;;;;;6.01;100.00;98880.84;1724922;81;21594;-52
2022/01/01 14:29:23;;;;;;;1.90;1.70;;;;;;;5.99;100.00;98879.59;1726452;81;21495;-52
2022/01/01 14:31:52;;;;;;;3.00;2.02;;;;;;;5.94;99.99;98879.32;1717773;82;21512;-52
2022/01/01 14:34:19;;;;;;;1.98;1.57;;;;;;;5.93;99.10;98882.36;1723640;81;21605;-52
2022/01/01 14:36:48;;;;;;;3.10;2.73;;;;;;;5.94;98.33;98878.86;1732588;82;21652;-53
2022/01/01 14:39:16;;;;;;;3.85;2.37;;;;;;;5.92;98.46;98877.22;1715786;81;21392;-54
2022/01/01 14:41:44;;;;;;;1.95;1.80;;;;;;;5.87;98.87;98881.75;1714786;82;21456;-52
2022/01/01 14:44:11;;;;;;;2.77;1.70;;;;;;;5.85;98.57;98887.02;1716558;81;21641;-54
2022/01/01 14:46:46;;;;;;;2.10;1.77;;;;;;;5.84;97.08;98880.95;1718271;82;21511;-53
2022/01/01 14:49:35;;;;;;;3.10;1.90;;;;;;;5.85;97.28;98876.11;1709083;82;21589;-53
2022/01/01 14:52:17;;;;;;;1.77;1.40;;;;;;;5.79;96.71;98884.62;1730096;81;21429;-52
2022/01/01 14:55:08;;;;;;;3.47;1.30;;;;;;;5.74;95.66;98876.95;1725948;81;21504;-52
2022/01/01 14:57:56;;;;;;;2.20;1.98;;;;;;;5.75;95.48;98876.06;1711335;82;21448;-51
2022/01/01 15:00:23;;;;;;;2.85;2.00;;;;;;;5.65;95.22;98873.36;1718604;82;21448;-53
2022/01/01 15:02:50;;;;;;;2.22;2.02;;;;;;;5.48;95.48;98869.19;1722488;80;21554;-55
2022/01/01 15:05:17;;;;;;;1.90;1.60;;;;;;;5.38;95.34;98862.14;1717917;82;21476;-50
2022/01/01 15:07:45;;;;;;;3.17;1.72;;;;;;;5.41;95.63;98877.69;1724771;80;21550;-50
2022/01/01 15:10:14;;;;;;;2.00;1.80;;;;;;;5.41;95.38;98879.83;1707776;82;21101;-50
2022/01/01 15:12:41;;;;;;;1.90;1.50;;;;;;;5.36;95.57;98879.13;1731411;80;21704;-50
2022/01/01 15:15:09;;;;;;;2.08;1.62;;;;;;;5.36;95.75;98886.95;1716197;82;21813;-52
2022/01/01 15:17:38;;;;;;;2.35;1.77;;;;;;;5.43;95.46;98891.52;1729954;81;21464;-51
2022/01/01 15:20:06;;;;;;;1.85;1.70;;;;;;;5.42;95.21;98889.34;1717742;82;21507;-51
2022/01/01 15:22:39;;;;;;;;;;;;;;;5.37;95.18;98895.61;1721395;82;21688;-55
2022/01/01 15:25:09;;;;;;;3.08;1.52;;;;;;;5.32;94.38;98894.48;1721274;82;20484;-54
2022/01/01 15:27:36;;;;;;;1.92;1.40;;;;;;;5.36;93.83;98893.92;1723203;80;21402;-53
2022/01/01 15:30:32;;;;;;;1.80;1.55;;;;;;;5.40;93.91;98890.30;1727461;81;20987;-52
2022/01/01 15:38:32;;;;;;;2.27;1.77;;;;;;;5.29;93.92;98904.15;1719172;81;21065;-53
2022/01/01 15:43:28;;;;;;;3.52;2.08;;;;;;;5.32;94.54;98911.87;1724858;82;21577;-55
2022/01/01 15:45:56;;;;;;;2.17;1.90;;;;;;;5.33;94.91;98915.75;1724208;82;21041;-54
2022/01/01 15:48:23;;;;;;;2.03;1.70;;;;;;;5.22;94.24;98899.15;1721496;81;21436;-53
2022/01/01 15:50:50;;;;;;;1.20;1.10;;;;;;;5.19;94.51;98907.52;1722311;81;21642;-53
2022/01/01 15:53:20;;;;;;;1.90;1.30;;;;;;;5.17;94.92;98905.41;1721434;80;21901;-53
2022/01/01 15:56:14;;;;;;;2.47;1.50;;;;;;;5.15;94.69;98919.79;1728375;80;21533;-55
2022/01/01 15:58:58;;;;;;;2.75;1.47;;;;;;;5.16;94.79;98913.69;1715692;82;21496;-52
2022/01/01 16:01:36;;;;;;;2.25;1.52;;;;;;;5.17;94.27;98911.92;1713033;81;21467;-54
2022/01/01 16:04:25;;;;;;;1.70;1.30;;;;;;;5.15;94.35;98916.34;1718988;81;21541;-51
2022/01/01 16:06:52;;;;;;;3.33;1.47;;;;;;;5.02;94.62;98923.23;1718821;82;21808;-54
2022/01/01 16:09:27;;;;;;;1.98;1.37;;;;;;;4.99;94.82;98911.63;1718286;82;21554;-54
2022/01/01 16:11:58;;;;;;;3.22;1.50;;;;;;;5.01;94.49;98916.77;1714310;82;21466;-53
2022/01/01 16:14:31;;;;;;;3.95;1.70;;;;;;;4.98;94.37;98914.27;1718020;82;20982;-52
2022/01/01 16:16:59;;;;;;;3.33;1.52;;;;;;;4.97;94.64;98913.43;1723674;81;21531;-53
2022/01/01 16:19:25;;;;;;;2.30;1.55;;;;;;;4.96;94.79;98916.92;1715266;82;22169;-55
2022/01/01 16:21:53;;;;;;;4.30;1.75;;;;;;;4.93;94.69;98925.28;1716465;82;21499;-54
2022/01/01 16:24:20;;;;;;;4.47;2.35;;;;;;;4.91;94.71;98925.78;1718457;81;21597;-53
2022/01/01 16:26:46;;;;;;;2.50;1.50;;;;;;;4.93;94.86;98927.88;1722952;82;21640;-54
2022/01/01 16:29:14;;;;;;;2.25;1.40;;;;;;;4.93;95.55;98935.24;1720863;82;21495;-52
2022/01/01 16:31:41;;;;;;;0.80;0.80;;;;;;;4.92;95.28;98922.29;1712596;82;21684;-52
2022/01/01 16:34:09;;;;;;;1.60;1.15;;;;;;;4.89;95.04;98936.24;1719822;82;21531;-53
2022/01/01 16:36:35;;;;;;;1.50;1.12;;;;;;;4.88;95.29;98944.52;1721019;81;21420;-53
2022/01/01 16:39:02;;;;;;;1.82;1.50;;;;;;;4.85;95.25;98947.66;1709616;82;21516;-52
2022/01/01 16:41:44;;;;;;;2.72;1.35;;;;;;;4.82;95.49;98949.05;1709315;82;21460;-53
2022/01/01 16:44:17;;;;;;;1.62;1.50;;;;;;;4.78;95.59;98948.28;1718868;80;21785;-51
2022/01/01 16:46:51;;;;;;;1.75;1.32;;;;;;;4.76;95.59;98949.23;1718360;81;21435;-51
2022/01/01 16:49:25;;;;;;;5.50;2.25;;;;;;;4.80;95.82;98946.94;1703121;82;21578;-52
2022/01/01 16:51:57;;;;;;;2.85;1.95;;;;;;;4.85;95.94;98955.48;1728542;81;21652;-53
2022/01/01 16:54:24;;;;;;;4.67;2.40;;;;;;;4.87;95.86;98956.28;1714255;81;21409;-53
2022/01/01 16:57:00;;;;;;;2.60;2.15;;;;;;;4.86;96.03;98963.70;1715503;81;21784;-52
2022/01/01 16:59:28;;;;;;;2.20;2.00;;;;;;;4.90;96.07;98967.92;1721763;82;21432;-53
2022/01/01 17:02:03;;;;;;;2.50;2.20;;;;;;;4.96;95.78;98962.97;1719124;80;21530;-53
2022/01/01 17:04:33;;;;;;;2.77;2.37;;;;;;;4.93;95.72;98969.11;1720220;81;21463;-53
2022/01/01 17:07:04;;;;;;;3.92;2.35;;;;;;;4.79;95.71;98967.39;1722661;80;21551;-54
2022/01/01 17:09:34;;;;;;;4.40;2.67;;;;;;;4.75;96.02;98960.12;1720476;81;21786;-53
2022/01/01 17:12:03;;;;;;;4.62;2.70;;;;;;;4.78;95.88;98970.88;1716108;81;21412;-52
2022/01/01 17:14:29;;;;;;;3.85;2.85;;;;;;;4.75;95.45;98961.88;1717679;82;21440;-54
2022/01/01 17:17:14;;;;;;;2.17;1.62;;;;;;;4.71;95.72;98956.33;1725645;82;21011;-52
2022/01/01 17:19:58;;;;;;;4.37;2.30;;;;;;;4.65;95.76;98958.24;1722503;82;21519;-53
2022/01/01 17:23:02;;;;;;;3.15;2.50;;;;;;;4.69;95.75;98959.00;1716717;81;21791;-53
2022/01/01 17:25:31;;;;;;;4.28;2.10;;;;;;;4.69;95.67;98961.61;1718999;81;21032;-54
2022/01/01 17:28:33;;;;;;;2.95;1.80;;;;;;;4.59;95.75;98969.27;1720515;82;21622;-54
2022/01/01 17:31:01;;;;;;;2.77;1.35;;;;;;;4.57;95.62;98966.70;1727611;81;21423;-55
2022/01/01 17:33:35;;;;;;;1.60;1.32;;;;;;;4.64;95.30;98972.14;1723870;81;21423;-53
2022/01/01 17:41:08;;;;;;;3.70;1.52;;;;;;;4.48;94.77;98976.95;1725348;82;21503;-54
2022/01/01 17:43:37;;;;;;;2.30;1.87;;;;;;;4.47;94.85;98979.59;1719942;81;21443;-54
2022/01/01 17:46:06;;;;;;;4.55;1.80;;;;;;;4.51;94.61;98982.52;1718145;82;21432;-52
2022/01/01 17:48:40;;;;;;;2.08;1.30;;;;;;;4.52;93.77;98979.45;1718542;81;21570;-53
2022/01/01 17:51:10;;;;;;;2.02;1.42;;;;;;;4.47;94.04;98989.55;1718059;81;21424;-54
2022/01/01 17:53:41;;;;;;;2.47;1.40;;;;;;;4.40;93.96;98991.92;1717072;81;21050;-56
2022/01/01 17:56:10;;;;;;;1.42;1.30;;;;;;;4.45;94.12;98993.95;1718176;81;21680;-53
2022/01/01 17:58:39;;;;;;;1.47;1.37;;;;;;;4.51;93.58;99001.20;1720674;82;21367;-55
2022/01/01 18:01:09;;;;;;;2.12;1.40;;;;;;;4.48;93.46;99003.41;1721417;81;21808;-52
2022/01/01 18:03:39;;;;;;;1.80;1.25;;;;;;;4.45;93.36;99015.23;1720626;81;21507;-53
2022/01/01 18:06:07;;;;;;;1.40;1.10;;;;;;;4.40;93.21;99007.99;1728988;82;21472;-53
2022/01/01 18:08:38;;;;;;;1.20;1.07;;;;;;;4.47;93.20;99012.98;1730849;80;21636;-55
2022/01/01 18:11:12;;;;;;;1.55;1.30;;;;;;;4.48;92.51;99013.83;1725475;81;21589;-53
2022/01/01 18:13:47;;;;;;;1.85;1.00;;;;;;;4.43;92.52;99012.67;1735719;81;21717;-54
2022/01/01 18:16:14;;;;;;;1.87;1.20;;;;;;;4.37;92.67;99014.58;1731776;80;21429;-55
2022/01/01 18:18:54;;;;;;;1.65;1.30;;;;;;;4.35;92.62;99015.06;1729102;79;21027;-54
2022/01/01 18:21:23;;;;;;;0.93;0.90;;;;;;;4.41;92.37;99018.83;1725581;81;21595;-53
2022/01/01 18:24:13;;;;;;;1.50;1.07;;;;;;;4.39;92.07;99025.37;1706501;81;21522;-54
2022/01/01 18:27:00;;;;;;;1.30;1.00;;;;;;;4.31;92.01;99020.80;1713382;82;21930;-55
2022/01/01 18:29:26;;;;;;;1.57;1.47;;;;;;;4.25;92.38;99026.18;1713333;82;21593;-54
2022/01/01 18:31:53;;;;;;;1.50;1.20;;;;;;;4.28;92.20;99026.95;1727415;80;21455;-53
2022/01/01 18:34:21;;;;;;;1.57;1.47;;;;;;;4.30;92.16;99030.82;1725231;81;21479;-53
2022/01/01 18:36:49;;;;;;;;;;;;;;;4.30;91.54;99032.13;1731722;82;21539;-53
2022/01/01 18:39:16;;;;;;;1.90;1.25;;;;;;;4.22;91.78;99046.64;1724662;81;22047;-52
2022/01/01 18:41:48;;;;;;;1.70;1.32;;;;;;;4.15;92.22;99039.89;1725354;81;21448;-53
2022/01/01 18:44:12;;;;;;;1.42;1.32;;;;;;;4.09;92.57;99037.00;1714566;82;21456;-53
2022/01/01 18:46:39;;;;;;;1.60;0.98;;;;;;;4.19;92.67;99044.56;1736884;81;21551;-53
2022/01/01 18:49:10;;;;;;;2.80;1.55;;;;;;;4.26;92.55;99048.27;1725456;81;20983;-53
2022/01/01 18:51:37;;;;;;;1.52;1.25;;;;;;;4.22;92.30;99041.86;1659041;84;21855;-54
2022/01/01 18:54:07;;;;;;;1.62;1.50;;;;;;;4.14;92.19;99048.58;1722956;82;21416;-53
2022/01/01 18:56:53;;;;;;;1.37;1.27;;;;;;;4.10;92.42;99056.91;1723592;82;20961;-53
2022/01/01 18:59:31;;;;;;;2.92;1.80;;;;;;;4.12;93.61;99069.03;1728280;81;20955;-52
2022/01/01 19:02:00;;;;;;;3.33;2.00;;;;;;;4.17;93.36;99068.48;1714668;80;21489;-53
2022/01/01 19:04:30;;;;;;;4.70;1.82;;;;;;;4.14;93.26;99069.84;1713361;81;21844;-55
2022/01/01 19:07:00;;;;;;;3.15;1.52;;;;;;;4.09;93.08;99068.67;1713937;82;21029;-54
2022/01/01 19:09:39;;;;;;;2.00;1.67;;;;;;;4.04;93.07;99068.78;1714674;82;21074;-53
2022/01/01 19:12:13;;;;;;;1.90;1.47;;;;;;;4.10;92.98;99080.31;1710773;82;21520;-54
2022/01/01 19:14:40;;;;;;;2.60;1.67;;;;;;;4.13;92.52;99075.50;1725748;82;21431;-56
2022/01/01 19:17:06;;;;;;;1.92;1.30;;;;;;;4.07;92.58;99074.37;1716050;82;21825;-56
2022/01/01 19:19:33;;;;;;;1.32;1.00;;;;;;;4.05;92.73;99077.42;1714120;82;21590;-55
2022/01/01 19:22:01;;;;;;;1.47;1.10;;;;;;;4.06;92.69;99086.50;1716521;81;21054;-55
2022/01/01 19:24:27;;;;;;;1.60;1.20;;;;;;;4.11;92.30;99077.30;1719566;81;21077;-55
2022/01/01 19:26:56;;;;;;;2.10;1.52;;;;;;;4.17;92.27;99082.79;1719685;81;21912;-54
2022/01/01 19:29:25;;;;;;;2.20;1.32;;;;;;;4.19;91.74;99079.70;1724197;81;21728;-54
2022/01/01 19:31:56;;;;;;;2.33;1.60;;;;;;;4.14;91.77;99081.09;1743673;81;20966;-53
2022/01/01 19:34:28;;;;;;;4.35;2.00;;;;;;;4.06;91.53;99071.34;1731593;80;20950;-52
2022/01/01 19:36:57;;;;;;;3.85;1.85;;;;;;;4.10;91.60;99078.17;1725141;81;21459;-52
2022/01/01 19:39:23;;;;;;;2.10;1.37;;;;;;;4.18;91.73;99088.38;1738458;81;21522;-53
2022/01/01 19:42:01;;;;;;;1.62;1.20;;;;;;;4.19;90.84;99087.05;1737047;80;21799;-52
2022/01/01 19:44:33;;;;;;;1.30;1.00;;;;;;;4.13;90.96;99086.37;1722801;81;21529;-54
2022/01/01 19:47:08;;;;;;;1.80;1.22;;;;;;;4.07;90.95;99096.48;1727577;81;21484;-52
2022/01/01 19:49:50;;;;;;;2.98;1.05;;;;;;;4.12;90.96;99105.00;1731547;81;21049;-54
2022/01/01 19:52:17;;;;;;;1.27;1.15;;;;;;;4.17;90.81;99100.55;1737352;81;21407;-53
2022/01/01 19:54:45;;;;;;;1.52;1.07;;;;;;;4.16;90.58;99120.94;1734630;80;21776;-53
2022/01/01 19:57:12;;;;;;;4.42;1.60;;;;;;;4.11;90.50;99121.52;1732921;80;21455;-53
2022/01/01 19:59:39;;;;;;;3.42;1.67;;;;;;;4.06;90.62;99113.81;1737473;80;21518;-54
2022/01/01 20:02:06;;;;;;;3.77;1.87;;;;;;;4.12;90.67;99119.31;1728448;81;21539;-53
2022/01/01 20:04:33;;;;;;;8.20;1.80;;;;;;;4.21;90.13;99130.80;1730688;81;21400;-54
2022/01/01 20:07:01;;;;;;;2.95;1.42;;;;;;;4.23;89.85;99127.70;1735087;81;21565;-54
2022/01/01 20:09:29;;;;;;;2.02;1.50;;;;;;;4.18;89.67;99138.70;1736191;81;21530;-53
2022/01/01 20:11:56;;;;;;;1.60;1.50;;;;;;;4.14;89.66;99137.49;1735663;81;21388;-53
2022/01/01 20:14:31;;;;;;;2.40;1.40;;;;;;;4.09;89.97;99141.52;1733910;80;21057;-52
2022/01/01 20:16:51;;;;;;;5.20;1.85;;;;;;;4.13;90.23;99147.52;1742217;81;20998;-54
2022/01/01 20:19:18;;;;;;;2.70;1.42;;;;;;;4.10;90.21;99139.31;1727760;81;22015;-54
2022/01/01 20:21:46;;;;;;;2.22;1.60;;;;;;;4.03;90.66;99139.05;1729328;81;21565;-53
2022/01/01 20:24:14;;;;;;;2.47;1.27;;;;;;;3.98;90.97;99152.64;1729470;81;20946;-54
2022/01/01 20:26:41;;;;;;;2.70;1.95;;;;;;;4.00;90.85;99154.30;1729006;81;21582;-54
2022/01/01 20:29:07;;;;;;;3.42;1.90;;;;;;;4.05;90.92;99145.95;1733682;80;21625;-52
2022/01/01 20:31:34;;;;;;;1.80;1.00;;;;;;;4.03;90.87;99154.23;1721020;81;21839;-55
2022/01/01 20:34:01;;;;;;;1.90;1.12;;;;;;;3.95;91.54;99152.70;1721639;81;21495;-55
2022/01/01 20:36:27;;;;;;;1.12;0.98;;;;;;;3.87;92.22;99156.33;1721347;80;21476;-55
2022/01/01 20:38:54;;;;;;;1.00;0.62;;;;;;;3.86;92.35;99173.27;1691217;82;21432;-55
2022/01/01 20:41:21;;;;;;;0.45;0.45;;;;;;;3.88;92.06;99170.18;1716155;82;21416;-52
2022/01/01 20:43:48;;;;;;;0.98;0.60;;;;;;;3.71;90.15;99165.36;1726772;81;21495;-53
2022/01/01 20:46:15;;;;;;;;;;;;;;;3.42;90.14;99182.45;1727113;80;20991;-53
2022/01/01 20:48:43;;;;;;;0.35;0.35;;;;;;;3.22;90.80;99188.50;1722948;80;20150;-53
2022/01/01 20:51:11;;;;;;;0.78;0.75;;;;;;;3.16;91.16;99187.34;1725994;80;21621;-51
2022/01/01 20:53:38;;;;;;;0.70;0.70;;;;;;;3.14;92.05;99215.09;1715868;82;21598;-52
2022/01/01 20:56:05;;;;;;;1.52;0.65;;;;;;;3.14;92.05;99215.09;1717397;82;21841;-52
2022/01/01 20:58:32;;;;;;;0.70;0.70;;;;;;;3.09;92.53;99209.55;1714257;81;21448;-52
2022/01/01 21:01:00;;;;;;;0.60;0.50;;;;;;;3.04;92.37;99223.05;1715722;81;21555;-52
2022/01/01 21:03:30;;;;;;;0.53;0.53;;;;;;;2.95;92.69;99232.31;1724471;82;21444;-54
2022/01/01 21:06:09;;;;;;;0.98;0.60;;;;;;;3.02;92.76;99239.56;1724788;81;21877;-53
2022/01/01 21:08:37;;;;;;;1.37;0.65;;;;;;;3.05;93.16;99235.17;1716377;82;21650;-54
2022/01/01 21:11:04;;;;;;;1.40;0.88;;;;;;;3.05;93.48;99245.56;1724703;81;20994;-52
2022/01/01 21:13:30;;;;;;;1.82;0.90;;;;;;;3.03;93.57;99259.03;1724714;82;20991;-53
2022/01/01 21:15:57;;;;;;;0.78;0.60;;;;;;;3.07;93.64;99256.78;1714189;82;21037;-52
2022/01/01 21:18:27;;;;;;;1.40;0.62;;;;;;;3.13;93.01;99249.31;1727400;80;21460;-54
